Time;durP1;ratioP1;P1;durP2;ratioP2;P2;SDS_P1;SDS_P2;PMS_P1;PMS_P2;Temp;Humidity;BMP_temperature;BMP_pressure;BME280_temperature;BME280_humidity;BME280_pressure;Samples;Min_cycle;Max_cycle;Signal;HPM_P1;HPM_P2
2021/03/04 00:00:10;;;;;;;186.43;58.05;;;5.60;94.20;;;;;;5014805;28;20033;-94
2021/03/04 00:02:37;;;;;;;187.90;60.67;;;5.60;94.10;;;;;;4996608;28;20034;-93
2021/03/04 00:05:08;;;;;;;174.77;58.00;;;5.60;94.00;;;;;;4995228;28;20072;-94
2021/03/04 00:07:35;;;;;;;189.98;60.53;;;5.60;94.10;;;;;;5014440;28;20026;-93
2021/03/04 00:10:03;;;;;;;191.10;62.67;;;5.60;94.00;;;;;;4999222;28;20080;-95
2021/03/04 00:12:29;;;;;;;195.05;60.13;;;5.60;94.00;;;;;;5015703;28;20030;-95
2021/03/04 00:14:54;;;;;;;175.27;59.17;;;5.50;94.00;;;;;;5016103;28;20036;-94
2021/03/04 00:17:20;;;;;;;172.07;57.78;;;5.50;94.30;;;;;;5014956;28;20363;-93
2021/03/04 00:19:46;;;;;;;193.88;62.05;;;5.50;94.10;;;;;;4997929;28;20070;-94
2021/03/04 00:22:11;;;;;;;186.45;60.25;;;5.50;94.10;;;;;;4997771;28;20103;-94
2021/03/04 00:24:37;;;;;;;198.63;61.80;;;5.50;94.10;;;;;;4995207;28;20496;-93
2021/03/04 00:27:02;;;;;;;192.93;63.88;;;5.50;94.10;;;;;;4997009;28;20116;-93
2021/03/04 00:29:28;;;;;;;201.40;66.25;;;5.50;94.10;;;;;;4998324;28;20160;-94
2021/03/04 00:31:54;;;;;;;210.82;63.97;;;5.40;94.10;;;;;;4994598;28;20371;-94
2021/03/04 00:34:20;;;;;;;189.75;61.00;;;5.40;94.10;;;;;;4998427;28;20041;-94
2021/03/04 00:36:45;;;;;;;192.45;63.70;;;5.40;94.20;;;;;;4997004;28;20026;-93
2021/03/04 00:39:11;;;;;;;210.20;67.88;;;5.40;94.20;;;;;;4996010;28;20034;-93
2021/03/04 00:41:36;;;;;;;200.23;66.43;;;5.40;94.20;;;;;;4998178;28;20037;-93
2021/03/04 00:44:06;;;;;;;181.10;62.53;;;5.40;94.20;;;;;;4996656;28;20029;-94
2021/03/04 00:46:33;;;;;;;177.60;60.72;;;5.40;94.30;;;;;;4991999;28;20117;-95
2021/03/04 00:48:58;;;;;;;193.98;63.35;;;5.50;94.20;;;;;;4998942;28;20034;-92
2021/03/04 00:51:24;;;;;;;186.90;62.50;;;5.40;94.20;;;;;;4997762;28;20032;-94
2021/03/04 00:53:50;;;;;;;177.50;61.45;;;5.40;94.30;;;;;;4997909;28;20030;-92
2021/03/04 00:56:15;;;;;;;174.70;61.88;;;5.40;94.20;;;;;;4998062;28;20030;-94
2021/03/04 00:58:41;;;;;;;173.45;60.13;;;5.50;94.30;;;;;;4997323;28;20050;-93
2021/03/04 01:01:07;;;;;;;167.07;59.97;;;5.50;94.20;;;;;;5014401;28;20037;-94
2021/03/04 01:03:32;;;;;;;159.32;55.85;;;5.40;94.20;;;;;;4997145;28;20026;-92
2021/03/04 01:05:59;;;;;;;162.55;57.83;;;5.50;94.20;;;;;;4996756;28;20509;-94
2021/03/04 01:08:24;;;;;;;153.65;55.17;;;5.50;94.20;;;;;;5013277;28;20097;-93
2021/03/04 01:10:50;;;;;;;170.25;58.92;;;5.40;94.20;;;;;;4997675;28;20018;-94
2021/03/04 01:13:17;;;;;;;172.38;57.80;;;5.40;94.10;;;;;;5020111;28;20034;-93
2021/03/04 01:15:42;;;;;;;159.15;55.50;;;5.30;94.50;;;;;;4997993;28;20030;-93
2021/03/04 01:18:08;;;;;;;173.40;59.45;;;5.30;94.30;;;;;;4997466;28;20030;-93
2021/03/04 01:20:34;;;;;;;174.20;59.20;;;5.30;94.20;;;;;;4995646;28;20095;-94
2021/03/04 01:23:00;;;;;;;165.70;55.22;;;5.30;94.30;;;;;;4997270;28;20022;-95
2021/03/04 01:25:26;;;;;;;166.98;56.78;;;5.30;94.30;;;;;;5014515;28;20037;-94
2021/03/04 01:27:52;;;;;;;165.93;57.22;;;5.30;94.20;;;;;;4992620;28;20033;-95
2021/03/04 01:30:24;;;;;;;176.55;58.47;;;5.30;94.30;;;;;;4993094;28;20022;-94
2021/03/04 01:32:49;;;;;;;158.32;55.28;;;5.30;94.30;;;;;;4995905;28;20149;-93
2021/03/04 01:35:16;;;;;;;176.60;58.78;;;5.40;94.30;;;;;;5013832;28;20038;-94
2021/03/04 01:37:41;;;;;;;166.77;57.15;;;5.40;94.40;;;;;;4996797;28;20104;-94
2021/03/04 01:40:10;;;;;;;182.48;60.70;;;5.30;94.30;;;;;;5013315;28;20129;-93
2021/03/04 01:42:36;;;;;;;167.15;57.60;;;5.40;94.30;;;;;;4995901;28;20026;-94
2021/03/04 01:45:03;;;;;;;171.10;57.30;;;5.30;94.30;;;;;;5014340;28;20470;-94
2021/03/04 01:47:28;;;;;;;176.02;60.70;;;5.30;94.30;;;;;;4994023;28;20117;-94
2021/03/04 01:49:54;;;;;;;189.52;63.38;;;5.30;94.30;;;;;;5004621;28;20058;-93
2021/03/04 01:52:20;;;;;;;189.20;63.92;;;5.30;94.30;;;;;;4990159;28;20030;-94
2021/03/04 01:54:46;;;;;;;158.82;55.63;;;5.30;94.30;;;;;;5004039;28;20017;-95
2021/03/04 01:57:13;;;;;;;179.43;58.40;;;5.30;94.40;;;;;;4995809;28;20065;-92
2021/03/04 01:59:38;;;;;;;193.30;61.40;;;5.30;94.40;;;;;;5013053;28;20053;-92
2021/03/04 02:02:04;;;;;;;179.98;61.88;;;5.30;94.40;;;;;;5014991;28;20022;-92
2021/03/04 02:04:30;;;;;;;175.35;61.85;;;5.30;94.40;;;;;;4996654;28;20059;-94
2021/03/04 02:07:13;;;;;;;200.27;63.50;;;5.20;94.30;;;;;;4997220;28;20022;-93
2021/03/04 02:09:43;;;;;;;204.65;60.45;;;5.20;94.40;;;;;;5024598;28;20164;-91
2021/03/04 02:12:37;;;;;;;204.02;63.90;;;5.20;94.40;;;;;;4993754;28;20062;-95
2021/03/04 02:15:07;;;;;;;186.57;58.30;;;5.20;94.50;;;;;;5013151;28;20033;-93
2021/03/04 02:17:36;;;;;;;184.18;57.80;;;5.20;94.50;;;;;;5013092;28;20099;-93
2021/03/04 02:20:18;;;;;;;182.38;60.42;;;5.20;94.50;;;;;;4995499;28;20042;-93
2021/03/04 02:23:05;;;;;;;190.77;54.63;;;5.20;94.50;;;;;;5012474;28;20398;-94
2021/03/04 02:26:10;;;;;;;166.43;54.72;;;5.10;94.40;;;;;;5012674;28;20034;-93
2021/03/04 02:28:36;;;;;;;153.52;52.88;;;5.10;94.40;;;;;;4995665;28;20034;-93
2021/03/04 02:31:06;;;;;;;147.60;52.53;;;5.10;94.40;;;;;;4996452;28;20076;-92
2021/03/04 02:33:33;;;;;;;152.70;53.00;;;5.00;94.40;;;;;;5013623;28;20030;-94
2021/03/04 02:36:00;;;;;;;139.10;48.83;;;5.00;94.50;;;;;;5009836;28;20048;-94
2021/03/04 02:38:27;;;;;;;139.25;50.42;;;5.00;94.60;;;;;;4992146;28;20043;-93
2021/03/04 02:40:55;;;;;;;136.60;48.90;;;5.00;94.50;;;;;;5006644;28;20045;-93
2021/03/04 02:43:23;;;;;;;124.70;44.53;;;4.90;94.50;;;;;;4995950;28;20026;-94
2021/03/04 02:45:50;;;;;;;121.93;42.63;;;4.90;94.50;;;;;;5009425;28;20035;-93
2021/03/04 02:48:18;;;;;;;134.27;47.63;;;4.90;94.50;;;;;;5001233;28;20025;-93
2021/03/04 02:50:47;;;;;;;133.57;46.65;;;4.90;94.50;;;;;;5012634;28;20022;-94
2021/03/04 02:53:13;;;;;;;128.35;47.20;;;4.80;94.50;;;;;;4996762;28;20025;-93
2021/03/04 02:55:39;;;;;;;127.38;45.65;;;4.80;94.60;;;;;;4995937;28;20136;-94
2021/03/04 02:58:09;;;;;;;121.75;42.05;;;4.80;94.60;;;;;;5005719;28;20050;-93
2021/03/04 03:00:35;;;;;;;114.78;41.95;;;4.80;94.60;;;;;;5008654;28;20069;-92
2021/03/04 03:03:06;;;;;;;121.15;42.75;;;4.70;94.60;;;;;;5013113;28;20045;-95
2021/03/04 03:05:34;;;;;;;122.18;42.42;;;4.80;94.60;;;;;;5012348;28;20080;-93
2021/03/04 03:08:01;;;;;;;118.22;42.63;;;4.70;94.60;;;;;;4995737;28;20116;-92
2021/03/04 03:10:27;;;;;;;113.47;42.00;;;4.70;94.60;;;;;;4994764;28;20030;-94
2021/03/04 03:12:58;;;;;;;124.20;43.58;;;4.70;94.60;;;;;;5004540;28;20047;-92
2021/03/04 03:15:25;;;;;;;122.47;42.97;;;4.70;94.60;;;;;;4982536;28;20034;-91
2021/03/04 03:17:51;;;;;;;117.88;40.92;;;4.60;94.60;;;;;;4995227;28;20030;-92
2021/03/04 03:20:19;;;;;;;128.23;43.08;;;4.60;94.70;;;;;;5009353;28;20097;-91
2021/03/04 03:22:49;;;;;;;120.78;42.83;;;4.60;94.70;;;;;;5013437;28;20033;-91
2021/03/04 03:25:16;;;;;;;119.93;41.65;;;4.70;94.70;;;;;;5013743;28;20104;-92
2021/03/04 03:27:43;;;;;;;121.43;41.70;;;4.70;94.70;;;;;;5011682;28;20473;-91
2021/03/04 03:30:20;;;;;;;113.15;41.80;;;4.70;94.80;;;;;;4994479;28;20041;-92
2021/03/04 03:32:52;;;;;;;125.25;43.45;;;4.80;94.80;;;;;;4988932;28;20026;-92
2021/03/04 03:35:19;;;;;;;134.30;45.45;;;4.80;94.80;;;;;;4994569;28;20065;-93
2021/03/04 03:37:46;;;;;;;129.55;42.90;;;4.80;94.70;;;;;;5019749;28;20022;-92
2021/03/04 03:40:14;;;;;;;100.65;35.50;;;4.80;94.80;;;;;;5014339;28;20382;-93
2021/03/04 03:42:40;;;;;;;108.00;34.70;;;4.80;94.70;;;;;;4994318;28;20119;-93
2021/03/04 03:45:10;;;;;;;100.70;35.67;;;4.80;94.70;;;;;;5013654;28;20366;-92
2021/03/04 03:47:36;;;;;;;112.28;39.53;;;4.80;94.70;;;;;;5001267;28;20027;-92
2021/03/04 03:50:03;;;;;;;106.35;36.22;;;4.80;94.60;;;;;;5006665;28;20077;-92
2021/03/04 03:52:34;;;;;;;119.82;39.67;;;4.70;94.50;;;;;;4994527;28;20164;-92
2021/03/04 03:55:02;;;;;;;123.32;40.90;;;4.70;94.60;;;;;;4993890;28;20172;-91
2021/03/04 03:57:30;;;;;;;112.80;39.90;;;4.60;94.60;;;;;;4995209;28;20046;-91
2021/03/04 03:59:56;;;;;;;137.55;42.83;;;4.60;94.70;;;;;;4994423;28;20045;-91
2021/03/04 04:02:24;;;;;;;111.65;38.30;;;4.60;94.70;;;;;;4994635;28;20022;-93
2021/03/04 04:04:49;;;;;;;136.77;43.13;;;4.60;94.70;;;;;;4995828;28;20065;-91
2021/03/04 04:07:16;;;;;;;123.82;40.53;;;4.70;94.70;;;;;;4984976;28;20057;-93
2021/03/04 04:09:42;;;;;;;128.40;41.38;;;4.70;94.70;;;;;;4994282;28;20453;-94
2021/03/04 04:12:08;;;;;;;127.65;40.88;;;4.60;94.70;;;;;;4995604;28;20021;-91
2021/03/04 04:14:34;;;;;;;133.02;40.80;;;4.70;94.80;;;;;;4999145;28;20028;-92
2021/03/04 04:17:00;;;;;;;126.88;40.97;;;4.70;94.80;;;;;;4995597;28;20030;-91
2021/03/04 04:19:26;;;;;;;127.80;41.20;;;4.70;94.80;;;;;;4991703;28;20054;-92
2021/03/04 04:21:52;;;;;;;122.43;38.63;;;4.70;94.80;;;;;;4996705;28;20033;-92
2021/03/04 04:24:18;;;;;;;122.55;38.22;;;4.70;94.80;;;;;;4998922;28;20022;-93
2021/03/04 04:26:43;;;;;;;128.80;40.90;;;4.80;94.70;;;;;;4997806;28;20040;-92
2021/03/04 04:29:09;;;;;;;133.00;41.88;;;4.70;94.70;;;;;;4997711;28;20057;-92
2021/03/04 04:31:36;;;;;;;118.55;37.80;;;4.70;94.70;;;;;;4993188;28;20100;-92
2021/03/04 04:34:01;;;;;;;108.30;34.92;;;4.70;94.70;;;;;;4987592;28;22044;-92
2021/03/04 04:36:27;;;;;;;125.05;40.22;;;4.60;94.60;;;;;;4996573;28;20092;-92
2021/03/04 04:38:52;;;;;;;117.05;35.55;;;4.60;94.70;;;;;;4998103;28;20030;-91
2021/03/04 04:41:18;;;;;;;145.32;40.35;;;4.50;94.70;;;;;;5012339;28;20039;-92
2021/03/04 04:43:43;;;;;;;125.22;38.15;;;4.50;94.70;;;;;;4992988;28;20023;-92
2021/03/04 04:46:09;;;;;;;123.93;39.50;;;4.50;94.70;;;;;;4986418;28;20022;-93
2021/03/04 04:48:35;;;;;;;139.02;40.35;;;4.50;94.80;;;;;;4993387;28;20045;-92
2021/03/04 04:51:00;;;;;;;115.68;34.50;;;4.40;94.80;;;;;;4998234;28;20493;-93
2021/03/04 04:53:26;;;;;;;107.40;34.10;;;4.40;94.90;;;;;;4994931;28;20033;-94
2021/03/04 04:55:51;;;;;;;113.65;36.78;;;4.40;94.90;;;;;;5024646;28;20022;-92
2021/03/04 04:58:17;;;;;;;118.85;38.10;;;4.40;94.90;;;;;;5023289;28;20049;-92
2021/03/04 05:00:42;;;;;;;117.53;36.25;;;4.40;95.00;;;;;;5014901;28;20041;-92
2021/03/04 05:03:08;;;;;;;119.97;37.80;;;4.40;94.90;;;;;;5014530;28;20536;-92
2021/03/04 05:05:33;;;;;;;121.65;37.45;;;4.40;95.00;;;;;;4995773;28;20062;-91
2021/03/04 05:07:59;;;;;;;133.55;38.58;;;4.40;94.90;;;;;;4979939;28;20026;-91
2021/03/04 05:10:24;;;;;;;106.78;34.50;;;4.40;95.00;;;;;;4985548;28;20478;-90
2021/03/04 05:12:50;;;;;;;111.53;34.88;;;4.40;95.00;;;;;;4997438;28;20018;-91
2021/03/04 05:15:16;;;;;;;114.90;36.65;;;4.40;95.00;;;;;;4998319;28;20053;-92
2021/03/04 05:17:41;;;;;;;114.63;35.30;;;4.40;95.00;;;;;;5013684;28;20509;-92
2021/03/04 05:20:07;;;;;;;106.78;34.60;;;4.50;95.00;;;;;;5012888;28;20518;-92
2021/03/04 05:22:33;;;;;;;122.22;38.50;;;4.40;95.20;;;;;;4997918;28;20029;-92
2021/03/04 05:25:00;;;;;;;110.45;34.63;;;4.40;95.00;;;;;;4996821;28;20125;-92
2021/03/04 05:27:26;;;;;;;132.30;38.20;;;4.40;95.00;;;;;;4996084;28;20450;-91
2021/03/04 05:29:52;;;;;;;119.88;38.25;;;4.40;95.00;;;;;;4996825;28;20040;-91
2021/03/04 05:32:18;;;;;;;119.03;39.33;;;4.40;95.00;;;;;;4991846;28;20029;-92
2021/03/04 05:34:45;;;;;;;108.03;33.35;;;4.40;95.00;;;;;;4997577;28;20076;-92
2021/03/04 05:37:10;;;;;;;121.43;37.60;;;4.40;95.00;;;;;;4997547;28;20084;-93
2021/03/04 05:39:36;;;;;;;122.22;38.03;;;4.40;95.10;;;;;;4997561;28;20038;-93
2021/03/04 05:42:06;;;;;;;109.47;36.55;;;4.40;95.10;;;;;;4998316;28;20022;-90
2021/03/04 05:44:32;;;;;;;111.90;34.30;;;4.40;95.10;;;;;;4997593;28;20041;-91
2021/03/04 05:46:58;;;;;;;148.43;39.85;;;4.40;95.10;;;;;;4997467;28;20030;-92
2021/03/04 05:49:28;;;;;;;117.85;36.10;;;4.50;95.10;;;;;;4995000;28;20057;-93
2021/03/04 05:51:56;;;;;;;128.30;37.97;;;4.40;95.00;;;;;;4998390;28;20064;-91
2021/03/04 05:54:22;;;;;;;110.00;35.13;;;4.40;95.10;;;;;;4993695;28;20018;-92
2021/03/04 05:56:48;;;;;;;120.35;35.75;;;4.40;95.10;;;;;;4998358;28;20362;-92
2021/03/04 05:59:14;;;;;;;101.47;34.17;;;4.40;95.20;;;;;;5016090;28;20029;-91
2021/03/04 06:01:42;;;;;;;113.90;37.30;;;4.40;95.10;;;;;;4996403;28;20049;-90
2021/03/04 06:04:09;;;;;;;120.25;36.72;;;4.40;95.10;;;;;;5016070;28;20017;-90
2021/03/04 06:06:35;;;;;;;124.63;37.67;;;4.30;95.00;;;;;;5015457;28;20032;-90
2021/03/04 06:09:01;;;;;;;118.60;36.15;;;4.30;95.00;;;;;;4997322;28;20108;-91
2021/03/04 06:11:26;;;;;;;121.85;38.55;;;4.30;95.00;;;;;;4997508;28;20477;-92
2021/03/04 06:13:53;;;;;;;116.15;37.05;;;4.30;95.10;;;;;;4996093;28;20036;-90
2021/03/04 06:16:20;;;;;;;115.13;34.00;;;4.30;95.20;;;;;;4996608;28;20030;-90
2021/03/04 06:18:45;;;;;;;116.57;35.45;;;4.30;95.10;;;;;;4991776;28;20105;-92
2021/03/04 06:21:25;;;;;;;118.43;36.35;;;4.30;95.10;;;;;;4995989;28;20101;-91
2021/03/04 06:23:52;;;;;;;121.28;35.88;;;4.30;95.10;;;;;;4988090;28;20045;-91
2021/03/04 06:26:36;;;;;;;103.68;33.10;;;4.30;95.40;;;;;;5000347;28;20026;-91
2021/03/04 06:29:17;;;;;;;113.05;35.70;;;4.40;95.10;;;;;;4994263;28;20022;-92
2021/03/04 06:31:43;;;;;;;126.32;37.63;;;4.40;95.20;;;;;;4990899;28;20054;-91
2021/03/04 06:34:22;;;;;;;119.28;37.95;;;4.40;95.20;;;;;;4988872;28;20022;-91
2021/03/04 06:36:52;;;;;;;125.95;38.28;;;4.40;95.10;;;;;;4995960;28;20052;-89
2021/03/04 06:39:18;;;;;;;128.85;39.10;;;4.30;95.10;;;;;;4993224;28;20433;-93
2021/03/04 06:41:43;;;;;;;134.38;39.60;;;4.30;95.10;;;;;;5006794;28;20026;-92
2021/03/04 06:44:09;;;;;;;111.68;34.22;;;4.30;95.10;;;;;;4996893;28;20025;-93
2021/03/04 06:46:47;;;;;;;132.85;40.20;;;4.40;95.20;;;;;;5007709;28;20407;-91
2021/03/04 06:49:16;;;;;;;120.85;38.85;;;4.40;95.20;;;;;;4986359;28;20116;-93
2021/03/04 06:51:43;;;;;;;134.40;38.97;;;4.30;95.10;;;;;;4999049;28;20022;-92
2021/03/04 06:54:08;;;;;;;125.63;38.30;;;4.30;95.20;;;;;;4999050;28;20076;-92
2021/03/04 06:56:34;;;;;;;146.45;38.33;;;4.40;95.30;;;;;;4998528;28;20437;-93
2021/03/04 06:59:01;;;;;;;132.13;37.60;;;4.40;95.30;;;;;;5012721;28;20038;-92
2021/03/04 07:01:27;;;;;;;141.68;37.63;;;4.50;95.40;;;;;;4993394;28;20038;-91
2021/03/04 07:03:54;;;;;;;126.60;37.55;;;4.50;95.30;;;;;;4994309;28;20034;-90
2021/03/04 07:06:22;;;;;;;144.57;39.88;;;4.50;95.20;;;;;;4995672;28;20030;-90
2021/03/04 07:08:50;;;;;;;129.57;38.08;;;4.50;95.20;;;;;;4995008;28;20037;-91
2021/03/04 07:11:25;;;;;;;128.55;38.53;;;4.50;95.10;;;;;;5010636;28;20044;-91
2021/03/04 07:13:52;;;;;;;136.80;39.97;;;4.50;95.10;;;;;;4991703;28;20030;-93
2021/03/04 07:16:18;;;;;;;121.82;38.47;;;4.50;95.10;;;;;;4991527;28;20026;-92
2021/03/04 07:18:52;;;;;;;125.03;38.72;;;4.50;95.20;;;;;;4994060;28;20034;-92
2021/03/04 07:21:19;;;;;;;126.15;39.42;;;4.40;95.10;;;;;;5009576;28;20030;-93
2021/03/04 07:23:46;;;;;;;135.60;40.10;;;4.40;95.10;;;;;;5006007;28;20029;-93
2021/03/04 07:26:14;;;;;;;120.88;38.90;;;4.40;95.20;;;;;;4996456;28;20053;-92
2021/03/04 07:28:42;;;;;;;122.22;37.17;;;4.50;95.20;;;;;;4995321;28;20026;-95
2021/03/04 07:31:10;;;;;;;113.30;35.50;;;4.40;95.20;;;;;;5011525;28;20029;-93
2021/03/04 07:33:38;;;;;;;117.65;35.22;;;4.40;95.10;;;;;;4987633;28;20030;-92
2021/03/04 07:36:06;;;;;;;111.38;32.90;;;4.40;95.40;;;;;;4983102;28;20022;-93
2021/03/04 07:38:36;;;;;;;122.97;37.65;;;4.40;95.10;;;;;;4994341;28;20582;-93
2021/03/04 07:41:07;;;;;;;119.40;37.78;;;4.40;95.10;;;;;;5008802;28;20049;-93
2021/03/04 07:43:46;;;;;;;127.03;38.08;;;4.40;95.10;;;;;;4995264;28;20024;-94
2021/03/04 07:46:24;;;;;;;124.93;35.75;;;4.40;95.10;;;;;;5000383;28;20057;-92
2021/03/04 07:48:51;;;;;;;120.43;36.67;;;4.40;95.10;;;;;;5013526;28;20140;-92
2021/03/04 07:51:16;;;;;;;126.93;37.25;;;4.30;95.10;;;;;;5012692;28;20030;-91
2021/03/04 07:53:46;;;;;;;116.28;36.67;;;4.40;95.20;;;;;;5012145;28;20118;-95
2021/03/04 07:56:23;;;;;;;126.38;38.10;;;4.40;95.10;;;;;;4999294;28;20127;-92
2021/03/04 07:58:49;;;;;;;132.02;38.97;;;4.40;95.20;;;;;;5000962;28;20053;-92
2021/03/04 08:01:15;;;;;;;135.23;39.55;;;4.40;95.20;;;;;;5017484;28;20390;-93
2021/03/04 08:03:48;;;;;;;130.98;38.38;;;4.40;95.10;;;;;;4999820;28;20018;-92
2021/03/04 08:06:14;;;;;;;132.20;38.00;;;4.40;95.40;;;;;;5001835;28;20033;-92
2021/03/04 08:08:40;;;;;;;142.77;38.60;;;4.40;95.10;;;;;;4999190;28;20062;-92
2021/03/04 08:11:06;;;;;;;141.32;39.38;;;4.40;95.10;;;;;;4994383;28;20026;-92
2021/03/04 08:13:40;;;;;;;122.22;37.33;;;4.40;95.10;;;;;;4994143;28;20041;-94
2021/03/04 08:16:16;;;;;;;121.30;37.03;;;4.40;95.10;;;;;;4993215;28;20030;-94
2021/03/04 08:18:45;;;;;;;131.50;37.75;;;4.40;95.10;;;;;;4999723;28;20033;-92
2021/03/04 08:21:10;;;;;;;114.43;34.85;;;4.40;95.10;;;;;;4993043;28;20029;-93
2021/03/04 08:23:43;;;;;;;126.55;36.78;;;4.40;95.00;;;;;;4998339;28;20022;-93
2021/03/04 08:26:29;;;;;;;125.88;37.55;;;4.40;95.10;;;;;;4994983;28;20061;-94
2021/03/04 08:29:10;;;;;;;113.85;35.15;;;4.40;95.00;;;;;;4997775;28;20022;-95
2021/03/04 08:31:42;;;;;;;114.30;35.58;;;4.40;95.10;;;;;;4997503;28;20394;-94
2021/03/04 08:34:08;;;;;;;123.20;36.97;;;4.40;95.10;;;;;;4994766;28;20034;-94
2021/03/04 08:36:42;;;;;;;131.32;36.13;;;4.50;95.00;;;;;;5010764;28;20105;-92
2021/03/04 08:39:07;;;;;;;108.40;34.70;;;4.40;94.90;;;;;;4990095;28;20022;-93
2021/03/04 08:41:33;;;;;;;114.82;36.25;;;4.40;94.90;;;;;;4996090;28;20038;-94
2021/03/04 08:44:10;;;;;;;121.32;36.97;;;4.40;95.00;;;;;;4998001;28;20022;-93
2021/03/04 08:46:35;;;;;;;121.93;34.83;;;4.40;95.00;;;;;;4989596;28;20030;-94
2021/03/04 08:49:01;;;;;;;119.60;35.97;;;4.50;95.00;;;;;;4995330;28;20025;-93
2021/03/04 08:51:28;;;;;;;117.78;35.63;;;4.50;94.90;;;;;;4994742;28;20053;-93
2021/03/04 08:53:53;;;;;;;112.30;35.20;;;4.50;94.90;;;;;;4992373;28;20018;-93
2021/03/04 08:56:19;;;;;;;118.85;36.17;;;4.50;94.90;;;;;;4990123;28;20474;-94
2021/03/04 08:58:45;;;;;;;131.35;37.88;;;4.50;94.90;;;;;;4988756;28;20156;-94
2021/03/04 09:01:12;;;;;;;119.32;35.17;;;4.60;95.00;;;;;;5006054;28;20044;-94
2021/03/04 09:03:39;;;;;;;123.82;35.70;;;4.60;95.00;;;;;;4992849;28;20363;-94
2021/03/04 09:06:13;;;;;;;121.47;36.38;;;4.70;94.80;;;;;;5004595;28;20030;-94
2021/03/04 09:08:41;;;;;;;125.18;38.50;;;4.70;94.90;;;;;;4992478;28;20117;-94
2021/03/04 09:11:09;;;;;;;118.05;32.85;;;4.70;94.80;;;;;;4995289;28;20025;-93
2021/03/04 09:13:36;;;;;;;121.72;35.03;;;4.70;94.70;;;;;;5000941;28;20469;-93
2021/03/04 09:16:06;;;;;;;124.60;35.97;;;4.70;94.70;;;;;;4997200;28;20030;-93
2021/03/04 09:18:46;;;;;;;115.20;33.33;;;4.70;94.70;;;;;;5009930;28;20026;-93
2021/03/04 09:21:14;;;;;;;115.38;33.35;;;4.70;94.60;;;;;;5000350;28;20038;-94
2021/03/04 09:23:40;;;;;;;123.72;36.70;;;4.70;94.60;;;;;;4996240;28;20026;-93
2021/03/04 09:26:08;;;;;;;120.03;35.65;;;4.70;94.60;;;;;;4993885;28;20026;-93
2021/03/04 09:28:35;;;;;;;114.85;36.13;;;4.70;94.60;;;;;;4994042;28;20022;-94
2021/03/04 09:31:27;;;;;;;134.57;36.40;;;4.70;94.60;;;;;;5014880;28;20087;-93
2021/03/04 09:33:57;;;;;;;126.22;34.80;;;4.80;94.60;;;;;;5009172;28;20045;-94
2021/03/04 09:36:22;;;;;;;121.65;36.55;;;4.80;94.60;;;;;;5007720;28;20025;-94
2021/03/04 09:38:52;;;;;;;128.38;35.75;;;4.80;94.60;;;;;;5010227;28;20228;-94
2021/03/04 09:41:19;;;;;;;126.00;36.63;;;4.90;94.70;;;;;;5003409;28;20038;-92
2021/03/04 09:43:48;;;;;;;116.60;35.80;;;4.90;94.60;;;;;;5002737;28;20088;-93
2021/03/04 09:46:34;;;;;;;117.32;35.60;;;5.00;94.60;;;;;;4993873;28;20030;-94
2021/03/04 09:49:15;;;;;;;117.55;36.08;;;5.10;94.50;;;;;;4992737;28;20030;-93
2021/03/04 09:51:45;;;;;;;106.78;31.98;;;5.10;94.40;;;;;;4994291;28;20117;-94
2021/03/04 09:54:11;;;;;;;101.82;31.10;;;5.10;94.70;;;;;;4994309;28;20032;-94
2021/03/04 09:56:37;;;;;;;109.68;33.33;;;5.10;94.40;;;;;;4995952;28;20037;-94
2021/03/04 09:59:03;;;;;;;113.80;33.75;;;5.10;94.30;;;;;;4994239;28;20042;-95
2021/03/04 10:01:34;;;;;;;91.78;31.17;;;5.10;94.10;;;;;;4993119;28;20107;-93
2021/03/04 10:04:04;;;;;;;92.78;29.77;;;5.10;94.10;;;;;;5009275;28;20026;-95
2021/03/04 10:06:37;;;;;;;100.97;33.42;;;5.10;94.20;;;;;;4995545;28;20049;-95
2021/03/04 10:09:07;;;;;;;93.30;31.00;;;5.10;94.20;;;;;;5009917;28;20018;-95
2021/03/04 10:11:37;;;;;;;90.10;29.83;;;5.10;94.20;;;;;;4996148;28;20026;-94
2021/03/04 10:14:13;;;;;;;90.43;29.27;;;5.00;94.10;;;;;;5009469;28;20030;-92
2021/03/04 10:16:39;;;;;;;94.47;30.83;;;5.10;94.40;;;;;;4990355;28;20034;-93
2021/03/04 10:19:06;;;;;;;89.22;29.20;;;5.10;94.10;;;;;;4992193;28;20023;-93
2021/03/04 10:21:32;;;;;;;95.20;31.38;;;5.10;94.10;;;;;;4993423;28;20045;-95
2021/03/04 10:23:58;;;;;;;88.57;31.23;;;5.10;94.00;;;;;;4997732;28;20029;-94
2021/03/04 10:26:23;;;;;;;88.03;28.15;;;5.10;94.40;;;;;;4989854;28;20018;-94
2021/03/04 10:28:49;;;;;;;92.32;29.23;;;5.20;94.00;;;;;;4995119;28;20026;-94
2021/03/04 10:31:15;;;;;;;92.57;30.05;;;5.20;93.90;;;;;;4995274;28;20076;-94
2021/03/04 10:33:40;;;;;;;86.63;28.33;;;5.10;93.90;;;;;;5013266;28;20025;-94
2021/03/04 10:36:06;;;;;;;91.00;27.92;;;5.10;93.90;;;;;;5000561;28;20033;-93
2021/03/04 10:38:32;;;;;;;83.93;26.15;;;5.10;93.80;;;;;;5000325;28;20044;-93
2021/03/04 10:40:57;;;;;;;80.25;26.70;;;5.20;93.80;;;;;;5000102;28;20624;-94
2021/03/04 10:43:23;;;;;;;82.05;26.88;;;5.10;93.80;;;;;;4993945;28;20064;-94
2021/03/04 10:45:48;;;;;;;76.05;25.48;;;5.10;93.80;;;;;;4989839;28;20037;-94
2021/03/04 10:48:14;;;;;;;82.22;27.02;;;5.10;93.70;;;;;;4992258;28;20026;-93
2021/03/04 10:50:40;;;;;;;74.18;24.30;;;5.00;93.70;;;;;;4992076;28;20096;-93
2021/03/04 10:53:05;;;;;;;88.50;25.52;;;5.00;94.00;;;;;;4989557;28;20597;-94
2021/03/04 10:55:31;;;;;;;73.88;23.63;;;5.00;93.70;;;;;;4990564;28;20034;-94
2021/03/04 10:57:57;;;;;;;78.70;23.38;;;5.00;93.80;;;;;;5009682;28;20042;-94
2021/03/04 11:00:23;;;;;;;71.78;23.80;;;5.00;93.70;;;;;;5003418;28;20042;-94
2021/03/04 11:02:48;;;;;;;78.60;24.70;;;5.00;93.80;;;;;;4993091;28;20030;-93
2021/03/04 11:05:14;;;;;;;76.50;24.13;;;5.10;93.80;;;;;;5007098;28;20034;-95
2021/03/04 11:07:39;;;;;;;77.15;25.40;;;5.10;93.80;;;;;;4993400;28;20112;-94
2021/03/04 11:10:07;;;;;;;72.88;25.65;;;5.20;93.60;;;;;;4995484;28;20026;-93
2021/03/04 11:12:33;;;;;;;67.93;23.40;;;5.10;93.60;;;;;;5007375;28;20080;-94
2021/03/04 11:14:59;;;;;;;65.20;21.23;;;5.20;93.60;;;;;;4999489;28;20037;-94
2021/03/04 11:17:25;;;;;;;71.68;24.80;;;5.20;93.60;;;;;;5009891;28;20022;-91
2021/03/04 11:19:51;;;;;;;71.35;23.58;;;5.30;93.60;;;;;;4998147;28;20042;-92
2021/03/04 11:22:17;;;;;;;67.05;23.30;;;5.20;93.50;;;;;;4994052;28;20019;-91
2021/03/04 11:24:46;;;;;;;64.53;22.73;;;5.30;93.50;;;;;;4993920;28;20030;-92
2021/03/04 11:27:12;;;;;;;56.67;20.30;;;5.30;93.50;;;;;;4996094;28;20072;-94
2021/03/04 11:29:37;;;;;;;63.85;19.95;;;5.40;93.50;;;;;;5011032;28;20508;-92
2021/03/04 11:32:03;;;;;;;59.13;20.33;;;5.40;93.40;;;;;;4996074;28;20022;-92
2021/03/04 11:34:28;;;;;;;67.50;22.83;;;5.40;93.40;;;;;;5011171;28;20051;-92
2021/03/04 11:36:54;;;;;;;54.65;20.05;;;5.40;93.30;;;;;;4993630;28;20029;-92
2021/03/04 11:39:19;;;;;;;58.10;19.63;;;5.40;93.20;;;;;;4997629;28;20099;-92
2021/03/04 11:41:45;;;;;;;54.60;20.65;;;5.40;93.20;;;;;;5008972;28;20422;-92
2021/03/04 11:44:13;;;;;;;57.28;19.60;;;5.40;93.10;;;;;;5013121;28;20064;-93
2021/03/04 11:46:39;;;;;;;52.55;19.23;;;5.30;93.10;;;;;;4996391;28;20044;-93
2021/03/04 11:49:04;;;;;;;52.25;17.98;;;5.30;93.10;;;;;;4993238;28;20101;-93
2021/03/04 11:51:30;;;;;;;52.97;19.52;;;5.30;93.20;;;;;;4997463;28;20501;-93
2021/03/04 11:53:55;;;;;;;56.15;20.30;;;5.30;93.20;;;;;;4991974;28;20029;-92
2021/03/04 11:56:22;;;;;;;48.42;19.48;;;5.30;93.10;;;;;;4994679;28;20025;-87
2021/03/04 11:58:48;;;;;;;58.47;20.55;;;5.30;93.10;;;;;;4990555;28;20050;-92
2021/03/04 12:01:14;;;;;;;52.85;19.40;;;5.30;93.10;;;;;;4985938;28;20037;-94
2021/03/04 12:03:39;;;;;;;44.95;18.42;;;5.20;93.10;;;;;;4986552;28;20054;-93
2021/03/04 12:06:05;;;;;;;49.42;19.00;;;5.20;93.10;;;;;;4988441;28;20038;-92
2021/03/04 12:08:30;;;;;;;50.13;18.60;;;5.20;93.00;;;;;;4991889;28;20049;-90
2021/03/04 12:10:57;;;;;;;48.42;18.60;;;5.20;93.00;;;;;;4993261;28;20022;-90
2021/03/04 12:13:23;;;;;;;43.45;18.10;;;5.20;93.00;;;;;;4998780;28;20467;-91
2021/03/04 12:15:48;;;;;;;41.83;16.42;;;5.20;93.00;;;;;;4980086;28;20026;-91
2021/03/04 12:18:14;;;;;;;44.50;15.68;;;5.20;93.10;;;;;;4988406;28;20027;-92
2021/03/04 12:20:39;;;;;;;44.60;16.33;;;5.20;93.10;;;;;;4992805;28;20112;-92
2021/03/04 12:23:07;;;;;;;37.97;15.27;;;5.20;93.10;;;;;;4990891;28;20073;-93
2021/03/04 12:25:34;;;;;;;34.45;12.88;;;5.20;93.00;;;;;;5013033;28;20053;-92
2021/03/04 12:28:00;;;;;;;33.67;12.25;;;5.20;92.90;;;;;;5006686;28;20086;-91
2021/03/04 12:30:26;;;;;;;29.17;12.23;;;5.10;92.90;;;;;;4987034;28;20549;-92